Time;durP1;ratioP1;P1;durP2;ratioP2;P2;SDS_P1;SDS_P2;PMS_P1;PMS_P2;Temp;Humidity;BMP_temperature;BMP_pressure;BME280_temperature;BME280_humidity;BME280_pressure;Samples;Min_cycle;Max_cycle;Signal;HPM_P1;HPM_P2
2022/04/20 00:02:43;;;;;;;18.50;13.65;;;;;;;;;;10432918;28;20056;-69
2022/04/20 00:07:45;;;;;;;19.65;14.32;;;;;;;;;;10432232;28;20057;-69
2022/04/20 00:12:48;;;;;;;19.67;13.80;;;;;;;;;;10432351;28;20050;-68
2022/04/20 00:17:52;;;;;;;18.90;13.90;;;;;;;;;;10425868;28;20061;-68
2022/04/20 00:22:54;;;;;;;17.15;14.77;;;;;;;;;;10432338;28;20049;-69
2022/04/20 00:27:56;;;;;;;19.98;16.80;;;;;;;;;;10431592;28;20045;-68
2022/04/20 00:33:01;;;;;;;22.63;16.77;;;;;;;;;;10435517;28;20041;-68
2022/04/20 00:38:03;;;;;;;24.38;16.80;;;;;;;;;;10439061;28;20272;-68
2022/04/20 00:43:06;;;;;;;23.58;16.30;;;;;;;;;;10438762;28;20061;-67
2022/04/20 00:48:11;;;;;;;23.08;15.82;;;;;;;;;;10438349;28;20050;-68
2022/04/20 00:53:13;;;;;;;19.90;15.43;;;;;;;;;;10438719;28;20029;-68
2022/04/20 00:58:15;;;;;;;22.00;16.25;;;;;;;;;;10436875;28;20395;-68
2022/04/20 01:03:20;;;;;;;23.05;16.92;;;;;;;;;;10437844;28;20045;-68
2022/04/20 01:08:22;;;;;;;20.88;17.63;;;;;;;;;;10437688;28;20061;-67
2022/04/20 01:13:24;;;;;;;23.33;16.90;;;;;;;;;;10434887;28;20090;-68
2022/04/20 01:18:28;;;;;;;20.88;16.85;;;;;;;;;;10437902;28;20044;-68
2022/04/20 01:23:32;;;;;;;23.52;17.35;;;;;;;;;;10438719;28;20328;-68
2022/04/20 01:28:37;;;;;;;20.45;16.65;;;;;;;;;;10437413;28;20038;-67
2022/04/20 01:33:40;;;;;;;21.10;16.10;;;;;;;;;;10438512;28;20065;-68
2022/04/20 01:38:44;;;;;;;20.38;14.40;;;;;;;;;;10436284;28;20041;-68
2022/04/20 01:43:47;;;;;;;22.58;14.77;;;;;;;;;;10437293;28;20386;-68
2022/04/20 01:48:49;;;;;;;18.27;14.63;;;;;;;;;;10436310;28;20045;-68
2022/04/20 01:53:53;;;;;;;23.17;17.45;;;;;;;;;;10436996;28;20099;-68
2022/04/20 01:58:55;;;;;;;31.77;19.58;;;;;;;;;;10434117;28;20060;-67
2022/04/20 02:03:57;;;;;;;23.23;17.20;;;;;;;;;;10434939;28;20045;-68
2022/04/20 02:09:01;;;;;;;22.45;16.50;;;;;;;;;;10434930;28;20387;-67
2022/04/20 02:14:03;;;;;;;21.10;16.55;;;;;;;;;;10435685;28;20056;-68
2022/04/20 02:19:05;;;;;;;21.42;17.45;;;;;;;;;;10434834;28;20387;-68
2022/04/20 02:24:10;;;;;;;25.17;17.15;;;;;;;;;;10434431;28;20115;-68
2022/04/20 02:29:12;;;;;;;22.63;16.77;;;;;;;;;;10434040;28;20050;-68
2022/04/20 02:34:15;;;;;;;21.52;14.95;;;;;;;;;;10432736;28;20337;-67
2022/04/20 02:39:19;;;;;;;19.60;15.18;;;;;;;;;;10434181;28;20045;-68
2022/04/20 02:44:22;;;;;;;22.45;16.98;;;;;;;;;;10434494;28;20061;-68
2022/04/20 02:49:25;;;;;;;23.98;17.17;;;;;;;;;;10433302;28;20424;-68
2022/04/20 02:54:29;;;;;;;25.05;18.15;;;;;;;;;;10432747;28;20061;-69
2022/04/20 02:59:31;;;;;;;24.60;18.53;;;;;;;;;;10433240;28;20056;-67
2022/04/20 03:04:34;;;;;;;23.10;17.77;;;;;;;;;;10434496;28;20045;-68
2022/04/20 03:09:37;;;;;;;26.23;20.00;;;;;;;;;;10433894;28;20103;-68
2022/04/20 03:14:40;;;;;;;26.85;18.90;;;;;;;;;;10434023;28;20390;-68
2022/04/20 03:19:42;;;;;;;24.50;18.50;;;;;;;;;;10433300;28;20087;-69
2022/04/20 03:24:45;;;;;;;24.13;17.33;;;;;;;;;;10434210;28;20064;-68
2022/04/20 03:29:48;;;;;;;24.30;17.48;;;;;;;;;;10433371;28;20049;-68
2022/04/20 03:34:51;;;;;;;18.20;14.75;;;;;;;;;;10428036;28;20054;-68
2022/04/20 03:39:55;;;;;;;22.23;16.50;;;;;;;;;;10433042;28;20056;-68
2022/04/20 03:44:58;;;;;;;19.75;14.75;;;;;;;;;;10431307;28;20069;-68
2022/04/20 03:50:00;;;;;;;22.85;15.07;;;;;;;;;;10432255;28;20057;-69
2022/04/20 03:55:04;;;;;;;22.42;16.25;;;;;;;;;;10429931;28;20053;-67
2022/04/20 04:00:08;;;;;;;25.30;17.70;;;;;;;;;;10431582;28;20279;-68
2022/04/20 04:05:11;;;;;;;20.27;15.35;;;;;;;;;;10430909;28;20054;-67
2022/04/20 04:10:14;;;;;;;22.02;15.65;;;;;;;;;;10441509;28;20057;-68
2022/04/20 04:15:17;;;;;;;23.08;14.63;;;;;;;;;;10440829;28;20389;-67
2022/04/20 04:20:19;;;;;;;23.45;15.32;;;;;;;;;;10440192;28;20057;-68
2022/04/20 04:25:24;;;;;;;21.67;14.13;;;;;;;;;;10440252;28;20064;-68
2022/04/20 04:30:27;;;;;;;19.70;14.33;;;;;;;;;;10439343;28;20049;-68
2022/04/20 04:35:29;;;;;;;20.10;13.40;;;;;;;;;;10438927;28;20305;-68
2022/04/20 04:40:33;;;;;;;21.38;13.25;;;;;;;;;;10438615;28;20037;-68
2022/04/20 04:50:56;;;;;;;22.35;12.82;;;;;;;;;;10451539;28;20045;-68
2022/04/20 04:56:00;;;;;;;19.73;12.30;;;;;;;;;;10437397;28;20060;-68
2022/04/20 05:01:02;;;;;;;23.30;13.73;;;;;;;;;;10436877;28;20072;-68
2022/04/20 05:06:05;;;;;;;22.23;13.50;;;;;;;;;;10437154;28;20045;-69
2022/04/20 05:11:08;;;;;;;22.65;14.50;;;;;;;;;;10436019;28;20218;-69
2022/04/20 05:16:11;;;;;;;23.40;14.60;;;;;;;;;;10437406;28;20052;-69
2022/04/20 05:21:13;;;;;;;21.73;13.95;;;;;;;;;;10428420;28;20046;-69
2022/04/20 05:26:17;;;;;;;18.65;11.48;;;;;;;;;;10432626;28;20076;-69
2022/04/20 05:31:19;;;;;;;20.45;12.10;;;;;;;;;;10436152;28;20056;-69
2022/04/20 05:36:22;;;;;;;17.67;11.68;;;;;;;;;;10435693;28;20041;-69
2022/04/20 05:41:41;;;;;;;17.33;11.77;;;;;;;;;;10436256;28;20041;-69
2022/04/20 05:46:44;;;;;;;19.05;13.38;;;;;;;;;;10449502;28;20044;-69
2022/04/20 05:51:46;;;;;;;21.80;13.93;;;;;;;;;;10437406;28;20260;-70
2022/04/20 05:56:50;;;;;;;19.65;13.20;;;;;;;;;;10430155;28;20398;-69
2022/04/20 06:01:53;;;;;;;24.35;15.65;;;;;;;;;;10435342;28;20095;-69
2022/04/20 06:06:55;;;;;;;19.65;13.60;;;;;;;;;;10435691;28;20060;-69
2022/04/20 06:11:59;;;;;;;23.95;16.33;;;;;;;;;;10435602;28;20048;-70
2022/04/20 06:17:01;;;;;;;19.55;15.35;;;;;;;;;;10434543;28;20064;-69
2022/04/20 06:22:04;;;;;;;28.30;16.58;;;;;;;;;;10435473;28;20057;-71
2022/04/20 06:27:11;;;;;;;35.90;19.77;;;;;;;;;;10433782;28;20091;-70
2022/04/20 06:32:16;;;;;;;54.28;27.15;;;;;;;;;;10434036;28;20349;-67
2022/04/20 06:37:19;;;;;;;43.75;23.65;;;;;;;;;;10432842;28;20394;-69
2022/04/20 06:42:23;;;;;;;21.45;13.43;;;;;;;;;;10432251;28;20057;-69
2022/04/20 06:47:27;;;;;;;26.85;15.15;;;;;;;;;;10429507;28;20041;-69
2022/04/20 07:03:13;;;;;;;28.42;15.75;;;;;;;;;;10431913;28;20072;-69
2022/04/20 07:08:15;;;;;;;43.03;21.90;;;;;;;;;;10432280;28;20038;-70
2022/04/20 07:13:19;;;;;;;40.60;19.90;;;;;;;;;;10433119;28;20290;-69
2022/04/20 07:18:22;;;;;;;26.02;14.15;;;;;;;;;;10432214;28;20053;-70
2022/04/20 07:23:24;;;;;;;20.58;12.93;;;;;;;;;;10432215;28;20185;-71
2022/04/20 07:28:28;;;;;;;18.98;11.93;;;;;;;;;;10430381;28;20140;-69
2022/04/20 07:33:30;;;;;;;12.90;9.30;;;;;;;;;;10433499;28;20049;-71
2022/04/20 07:38:33;;;;;;;11.65;9.07;;;;;;;;;;10416481;28;20052;-70
2022/04/20 07:43:38;;;;;;;14.65;9.90;;;;;;;;;;10437085;28;20061;-69
2022/04/20 07:48:41;;;;;;;26.08;19.27;;;;;;;;;;10440240;28;20355;-71
2022/04/20 07:53:43;;;;;;;20.17;11.23;;;;;;;;;;10439960;28;20041;-69
2022/04/20 07:58:47;;;;;;;16.10;9.40;;;;;;;;;;10441000;28;20363;-71
2022/04/20 08:03:51;;;;;;;17.95;11.20;;;;;;;;;;10440827;28;20363;-70
2022/04/20 08:08:54;;;;;;;25.63;15.35;;;;;;;;;;10440560;28;20053;-70
2022/04/20 08:14:13;;;;;;;9.98;7.68;;;;;;;;;;10441664;28;20064;-70
2022/04/20 08:19:15;;;;;;;12.25;7.45;;;;;;;;;;10426890;28;20061;-70
2022/04/20 08:24:18;;;;;;;10.15;6.88;;;;;;;;;;10439200;28;20247;-68
2022/04/20 08:29:22;;;;;;;12.00;7.47;;;;;;;;;;10439604;28;20270;-70
2022/04/20 08:34:25;;;;;;;10.18;6.90;;;;;;;;;;10441115;28;20045;-69
2022/04/20 08:39:27;;;;;;;8.57;6.60;;;;;;;;;;10438037;28;20053;-68
2022/04/20 08:44:35;;;;;;;12.52;9.13;;;;;;;;;;10440108;28;20084;-69
2022/04/20 08:49:38;;;;;;;15.35;10.13;;;;;;;;;;10437235;28;20084;-71
2022/04/20 08:54:40;;;;;;;19.33;11.55;;;;;;;;;;10436299;28;20048;-68
2022/04/20 08:59:44;;;;;;;19.55;10.10;;;;;;;;;;10437830;28;20124;-71
2022/04/20 09:04:47;;;;;;;10.90;7.57;;;;;;;;;;10437482;28;20244;-69
2022/04/20 09:09:51;;;;;;;8.55;7.50;;;;;;;;;;10437191;28;20041;-71
2022/04/20 09:14:56;;;;;;;16.80;8.45;;;;;;;;;;10436772;28;20484;-70
2022/04/20 09:19:59;;;;;;;11.43;8.88;;;;;;;;;;10436188;28;20049;-69
2022/04/20 09:25:08;;;;;;;13.63;9.55;;;;;;;;;;10438086;28;20321;-68
2022/04/20 09:30:13;;;;;;;12.95;10.40;;;;;;;;;;10436069;28;20333;-68
2022/04/20 09:35:18;;;;;;;14.05;9.35;;;;;;;;;;10437134;28;20435;-70
2022/04/20 09:40:32;;;;;;;16.00;10.60;;;;;;;;;;10435107;28;20053;-68
2022/04/20 09:45:37;;;;;;;18.33;10.52;;;;;;;;;;10439253;28;20065;-68
2022/04/20 09:50:40;;;;;;;16.15;10.35;;;;;;;;;;10431371;28;20045;-70
2022/04/20 09:55:42;;;;;;;13.80;10.50;;;;;;;;;;10437154;28;20061;-68
2022/04/20 10:00:49;;;;;;;12.07;9.32;;;;;;;;;;10435816;28;20042;-70
2022/04/20 10:05:51;;;;;;;13.52;10.20;;;;;;;;;;10437234;28;20096;-69
2022/04/20 10:10:55;;;;;;;13.63;10.25;;;;;;;;;;10435143;28;20096;-71
2022/04/20 10:16:09;;;;;;;14.35;9.70;;;;;;;;;;10411984;28;20053;-70
2022/04/20 10:21:12;;;;;;;10.38;9.10;;;;;;;;;;10435261;28;20053;-69
2022/04/20 10:26:16;;;;;;;11.45;8.52;;;;;;;;;;10434669;28;20046;-69
2022/04/20 10:31:34;;;;;;;12.98;8.32;;;;;;;;;;10434692;28;20042;-69
2022/04/20 10:36:37;;;;;;;9.98;7.80;;;;;;;;;;10413090;28;20243;-69
2022/04/20 10:41:41;;;;;;;10.05;6.93;;;;;;;;;;10433054;28;20068;-68
2022/04/20 10:47:04;;;;;;;10.70;6.68;;;;;;;;;;10445325;28;20099;-69
2022/04/20 10:52:24;;;;;;;12.82;8.02;;;;;;;;;;10445258;28;20042;-71
2022/04/20 10:57:34;;;;;;;11.18;8.20;;;;;;;;;;10447001;28;20060;-69
2022/04/20 11:02:50;;;;;;;10.52;8.45;;;;;;;;;;10432823;28;20105;-68
2022/04/20 11:08:03;;;;;;;11.85;7.82;;;;;;;;;;10447168;28;20087;-69
2022/04/20 11:19:06;;;;;;;11.75;9.05;;;;;;;;;;10432227;28;20049;-68
2022/04/20 11:24:11;;;;;;;11.27;7.78;;;;;;;;;;10445283;28;20041;-70
2022/04/20 11:29:15;;;;;;;11.07;7.72;;;;;;;;;;10429398;28;20067;-68
2022/04/20 11:34:21;;;;;;;11.17;8.07;;;;;;;;;;10432575;28;20057;-70
2022/04/20 11:39:24;;;;;;;10.30;7.90;;;;;;;;;;10432921;28;20068;-68
2022/04/20 11:44:28;;;;;;;11.45;7.45;;;;;;;;;;10431197;28;20268;-70
2022/04/20 11:49:36;;;;;;;14.68;9.07;;;;;;;;;;10407017;28;20058;-68
2022/04/20 11:54:39;;;;;;;11.50;8.57;;;;;;;;;;10420533;28;20268;-70
2022/04/20 11:59:46;;;;;;;11.13;8.57;;;;;;;;;;10432733;28;20165;-69
2022/04/20 12:04:49;;;;;;;12.70;8.80;;;;;;;;;;10431759;28;20056;-68
2022/04/20 12:09:54;;;;;;;11.65;8.85;;;;;;;;;;10431647;28;20111;-69
2022/04/20 12:15:06;;;;;;;10.05;8.00;;;;;;;;;;10429862;28;20041;-69
2022/04/20 12:20:11;;;;;;;11.63;8.35;;;;;;;;;;10432135;28;20247;-69
2022/04/20 12:25:14;;;;;;;12.65;8.48;;;;;;;;;;10432144;28;20280;-70
2022/04/20 12:30:16;;;;;;;12.70;8.32;;;;;;;;;;10437393;28;20052;-68
2022/04/20 12:35:22;;;;;;;12.27;8.80;;;;;;;;;;10437285;28;20049;-68
2022/04/20 12:40:26;;;;;;;12.88;7.97;;;;;;;;;;10438848;28;20348;-68
2022/04/20 12:45:28;;;;;;;12.85;8.10;;;;;;;;;;10437641;28;20123;-69
2022/04/20 12:50:38;;;;;;;10.35;7.40;;;;;;;;;;10438641;28;20365;-70
2022/04/20 12:55:43;;;;;;;8.32;7.30;;;;;;;;;;10450998;28;20049;-69
2022/04/20 13:06:10;;;;;;;9.65;7.72;;;;;;;;;;10450621;28;20126;-70
2022/04/20 13:11:13;;;;;;;7.50;6.15;;;;;;;;;;10451806;28;20056;-70
2022/04/20 13:16:15;;;;;;;13.77;11.82;;;;;;;;;;10435495;28;20084;-71
2022/04/20 13:21:19;;;;;;;10.25;7.30;;;;;;;;;;10438670;28;20232;-71
2022/04/20 13:31:44;;;;;;;11.02;7.57;;;;;;;;;;10435070;28;20053;-68
2022/04/20 13:36:48;;;;;;;7.53;6.63;;;;;;;;;;10420691;28;20133;-71
2022/04/20 13:41:50;;;;;;;11.27;6.15;;;;;;;;;;10434204;28;20313;-69
2022/04/20 13:46:52;;;;;;;10.52;7.13;;;;;;;;;;10450138;28;20045;-69
2022/04/20 13:51:56;;;;;;;7.90;5.60;;;;;;;;;;10433279;28;20345;-68
2022/04/20 13:56:58;;;;;;;6.60;5.90;;;;;;;;;;10436280;28;20057;-68
2022/04/20 14:02:01;;;;;;;9.80;6.68;;;;;;;;;;10435003;28;20232;-68
2022/04/20 14:07:05;;;;;;;8.15;6.40;;;;;;;;;;10395083;28;20049;-67
2022/04/20 14:12:08;;;;;;;7.45;6.25;;;;;;;;;;10434514;28;20240;-69
2022/04/20 14:17:15;;;;;;;9.10;7.13;;;;;;;;;;10407649;28;20046;-67
2022/04/20 14:22:19;;;;;;;9.18;7.07;;;;;;;;;;10435073;28;20049;-66
2022/04/20 14:32:42;;;;;;;10.80;8.32;;;;;;;;;;10422641;28;20144;-66
2022/04/20 14:37:46;;;;;;;11.57;8.82;;;;;;;;;;10434427;28;20337;-69
2022/04/20 14:42:48;;;;;;;10.80;8.48;;;;;;;;;;10434420;28;20068;-67
2022/04/20 14:47:51;;;;;;;13.95;9.30;;;;;;;;;;10434542;28;20065;-69
2022/04/20 14:52:54;;;;;;;12.85;9.25;;;;;;;;;;10415625;28;20049;-69
2022/04/20 14:57:59;;;;;;;13.10;8.40;;;;;;;;;;10435245;28;20324;-67
2022/04/20 15:03:02;;;;;;;15.20;8.65;;;;;;;;;;10432873;28;20095;-68
2022/04/20 15:08:07;;;;;;;12.13;8.88;;;;;;;;;;10427692;28;20045;-68
2022/04/20 15:13:09;;;;;;;12.32;8.15;;;;;;;;;;10394063;28;20336;-69
2022/04/20 15:18:12;;;;;;;14.30;9.02;;;;;;;;;;10409151;28;20049;-68
2022/04/20 15:23:15;;;;;;;10.80;8.80;;;;;;;;;;10431657;28;20152;-69
2022/04/20 15:28:18;;;;;;;22.25;11.48;;;;;;;;;;10431818;28;20053;-69
2022/04/20 15:33:20;;;;;;;11.68;9.50;;;;;;;;;;10432876;28;20046;-67
2022/04/20 15:38:24;;;;;;;10.98;9.65;;;;;;;;;;10422663;28;20053;-71
2022/04/20 15:43:27;;;;;;;12.77;9.80;;;;;;;;;;10417574;28;20256;-69
2022/04/20 15:48:29;;;;;;;11.57;9.73;;;;;;;;;;10427648;28;20119;-69
2022/04/20 15:53:34;;;;;;;14.27;9.98;;;;;;;;;;10432516;28;20042;-69
2022/04/20 16:03:56;;;;;;;17.85;11.77;;;;;;;;;;10450374;28;20332;-71
2022/04/20 16:09:00;;;;;;;15.98;12.70;;;;;;;;;;10440249;28;20056;-69
2022/04/20 16:14:02;;;;;;;13.82;11.07;;;;;;;;;;10424450;28;20049;-69
2022/04/20 16:19:04;;;;;;;17.45;13.90;;;;;;;;;;10409853;28;20078;-68
2022/04/20 16:24:08;;;;;;;25.20;16.48;;;;;;;;;;10437317;28;20060;-70
2022/04/20 16:29:11;;;;;;;20.92;15.45;;;;;;;;;;10437836;28;20053;-68
2022/04/20 16:34:14;;;;;;;21.65;14.70;;;;;;;;;;10431287;28;20044;-68
2022/04/20 16:39:18;;;;;;;19.88;15.55;;;;;;;;;;10434889;28;20103;-70
2022/04/20 16:44:21;;;;;;;20.17;15.27;;;;;;;;;;10434145;28;20109;-70
2022/04/20 16:49:23;;;;;;;36.38;20.75;;;;;;;;;;10434838;28;20395;-69
2022/04/20 16:54:26;;;;;;;50.42;23.88;;;;;;;;;;10439296;28;20088;-69
2022/04/20 16:59:29;;;;;;;33.65;22.90;;;;;;;;;;10437319;28;20227;-69
2022/04/20 17:04:31;;;;;;;40.97;23.05;;;;;;;;;;10436053;28;20056;-69
2022/04/20 17:09:35;;;;;;;29.75;18.75;;;;;;;;;;10438156;28;20266;-67
2022/04/20 17:14:38;;;;;;;37.47;22.60;;;;;;;;;;10419233;28;20053;-67
2022/04/20 17:19:40;;;;;;;28.38;20.00;;;;;;;;;;10436164;28;20295;-67
2022/04/20 17:30:16;;;;;;;24.50;19.48;;;;;;;;;;10434674;28;20053;-68
2022/04/20 17:40:39;;;;;;;29.08;19.67;;;;;;;;;;10407931;28;20112;-70
2022/04/20 17:45:42;;;;;;;34.33;24.38;;;;;;;;;;10416677;28;20076;-70
2022/04/20 17:50:44;;;;;;;30.67;20.83;;;;;;;;;;10437806;28;20079;-70
2022/04/20 17:55:48;;;;;;;30.38;21.10;;;;;;;;;;10437269;28;20111;-72
2022/04/20 18:00:52;;;;;;;29.30;21.95;;;;;;;;;;10437686;28;20053;-71
2022/04/20 18:05:55;;;;;;;33.70;23.10;;;;;;;;;;10438063;28;20049;-70
2022/04/20 18:10:59;;;;;;;34.25;24.45;;;;;;;;;;10438267;28;20041;-69
2022/04/20 18:16:01;;;;;;;30.52;21.92;;;;;;;;;;10436132;28;20266;-70
2022/04/20 18:21:04;;;;;;;35.60;21.58;;;;;;;;;;10436711;28;20045;-70
2022/04/20 18:26:08;;;;;;;35.35;22.58;;;;;;;;;;10435632;28;20042;-70
2022/04/20 18:31:10;;;;;;;35.20;23.58;;;;;;;;;;10436463;28;20080;-69
2022/04/20 18:36:15;;;;;;;37.15;23.63;;;;;;;;;;10428395;28;20122;-70
2022/04/20 18:41:19;;;;;;;38.03;26.02;;;;;;;;;;10418227;28;20051;-69
2022/04/20 18:46:22;;;;;;;32.13;24.70;;;;;;;;;;10418144;28;20081;-69
2022/04/20 18:51:24;;;;;;;34.17;23.50;;;;;;;;;;10419113;28;20053;-69
2022/04/20 19:01:48;;;;;;;38.20;26.05;;;;;;;;;;10429694;28;20061;-70
2022/04/20 19:06:51;;;;;;;33.17;25.75;;;;;;;;;;10394336;28;20046;-68
2022/04/20 19:11:54;;;;;;;37.97;26.77;;;;;;;;;;10395508;28;20069;-70
2022/04/20 19:16:58;;;;;;;40.53;27.30;;;;;;;;;;10415538;28;20340;-70
2022/04/20 19:22:01;;;;;;;39.85;26.95;;;;;;;;;;10428205;28;20045;-69
2022/04/20 19:27:05;;;;;;;37.40;25.92;;;;;;;;;;10432266;28;20049;-71
2022/04/20 19:32:08;;;;;;;40.60;26.58;;;;;;;;;;10432749;28;20041;-71
2022/04/20 19:37:11;;;;;;;43.53;28.75;;;;;;;;;;10425516;28;20041;-69
2022/04/20 19:42:16;;;;;;;40.85;29.00;;;;;;;;;;10407375;28;20072;-69
2022/04/20 19:47:19;;;;;;;41.47;28.63;;;;;;;;;;10430092;28;20049;-71
2022/04/20 19:52:22;;;;;;;39.83;29.67;;;;;;;;;;10415281;28;20337;-69
2022/04/20 19:57:27;;;;;;;47.58;29.15;;;;;;;;;;10410537;28;20053;-69
2022/04/20 20:02:29;;;;;;;48.70;28.83;;;;;;;;;;10424845;28;20321;-68
2022/04/20 20:07:32;;;;;;;40.38;28.27;;;;;;;;;;10433792;28;20041;-70
2022/04/20 20:12:36;;;;;;;40.97;29.15;;;;;;;;;;10433690;28;20037;-69
2022/04/20 20:17:39;;;;;;;45.97;29.45;;;;;;;;;;10429752;28;20045;-72
2022/04/20 20:30:03;;;;;;;39.05;28.50;;;;;;;;;;10433502;28;20061;-70
2022/04/20 20:33:26;;;;;;;41.38;28.50;;;;;;;;;;10430748;28;20268;-70
2022/04/20 20:38:28;;;;;;;42.08;28.67;;;;;;;;;;10433114;28;20068;-70
2022/04/20 20:43:33;;;;;;;41.80;27.85;;;;;;;;;;10432402;28;20062;-72
2022/04/20 20:53:57;;;;;;;45.97;31.13;;;;;;;;;;10394874;28;20054;-70
2022/04/20 20:59:01;;;;;;;48.10;30.45;;;;;;;;;;10393388;28;20064;-69
2022/04/20 21:04:04;;;;;;;43.88;30.85;;;;;;;;;;10389867;28;20352;-70
2022/04/20 21:09:06;;;;;;;43.53;31.73;;;;;;;;;;10392993;28;20061;-70
2022/04/20 21:14:10;;;;;;;48.72;33.35;;;;;;;;;;10392597;28;20114;-70
2022/04/20 21:19:12;;;;;;;51.17;32.17;;;;;;;;;;10389582;28;20360;-69
2022/04/20 21:24:15;;;;;;;47.42;31.30;;;;;;;;;;10386750;28;20381;-69
2022/04/20 21:29:18;;;;;;;46.03;31.60;;;;;;;;;;10379493;28;20356;-70
2022/04/20 21:34:21;;;;;;;45.03;30.37;;;;;;;;;;10431681;28;20048;-69
2022/04/20 21:39:24;;;;;;;46.75;32.58;;;;;;;;;;10436615;28;20076;-69
2022/04/20 21:44:29;;;;;;;45.00;31.73;;;;;;;;;;10437922;28;20049;-71
2022/04/20 21:49:34;;;;;;;43.63;29.42;;;;;;;;;;10436662;28;20057;-69
2022/04/20 21:54:36;;;;;;;39.50;29.48;;;;;;;;;;10436322;28;20049;-72
2022/04/20 21:59:40;;;;;;;42.65;28.75;;;;;;;;;;10436521;28;20057;-72
2022/04/20 22:10:05;;;;;;;40.95;29.50;;;;;;;;;;10436525;28;20260;-69
2022/04/20 22:15:11;;;;;;;47.83;33.13;;;;;;;;;;10411894;28;20056;-69
2022/04/20 22:20:13;;;;;;;;;;;;;;;;;;10444007;28;20091;-69
2022/04/20 22:25:15;;;;;;;86.60;48.70;;;;;;;;;;10435924;28;20167;-68
2022/04/20 22:30:19;;;;;;;48.75;32.08;;;;;;;;;;10435338;28;20048;-70
2022/04/20 22:35:22;;;;;;;45.50;31.42;;;;;;;;;;10435020;28;20108;-69
2022/04/20 22:40:25;;;;;;;43.38;30.45;;;;;;;;;;10433984;28;20049;-69
2022/04/20 22:45:30;;;;;;;45.13;30.25;;;;;;;;;;10435177;28;20088;-69
2022/04/20 22:50:34;;;;;;;41.10;30.25;;;;;;;;;;10434775;28;20103;-69
2022/04/20 22:55:36;;;;;;;45.10;30.48;;;;;;;;;;10433081;28;20237;-71
2022/04/20 23:00:40;;;;;;;49.92;32.55;;;;;;;;;;10435116;28;20053;-69
2022/04/20 23:05:42;;;;;;;51.08;34.22;;;;;;;;;;10433306;28;20142;-69
2022/04/20 23:10:45;;;;;;;57.08;33.75;;;;;;;;;;10434384;28;20049;-69
2022/04/20 23:15:49;;;;;;;47.47;32.72;;;;;;;;;;10433736;28;20049;-70
2022/04/20 23:20:53;;;;;;;50.40;34.22;;;;;;;;;;10400917;28;20384;-70
2022/04/20 23:31:16;;;;;;;49.30;32.88;;;;;;;;;;10432366;28;20302;-69
2022/04/20 23:36:18;;;;;;;50.70;33.53;;;;;;;;;;10432998;28;20120;-70
2022/04/20 23:41:21;;;;;;;55.05;35.35;;;;;;;;;;10432598;28;20053;-69
2022/04/20 23:46:25;;;;;;;50.15;33.90;;;;;;;;;;10431582;28;20117;-70
2022/04/20 23:51:28;;;;;;;56.10;35.23;;;;;;;;;;10432287;28;20046;-69
2022/04/20 23:56:30;;;;;;;57.92;35.17;;;;;;;;;;10432707;28;20049;-69
